Terminal Aerodrome Forecast
Issued by NWS Brownsville, TX

Home | Current Version | Previous Version | Text Only | Print | Product List | Glossary On
Versions: 1 2 3 4 5 6 7 8 9 10 11 12 13 14 15 16
000
FTUS44 KBRO 241100
TAFBRO
TAF
KBRO 241129Z 2412/2512 15003KT P6SM FEW018
     FM241400 16008KT P6SM FEW025 SCT080
     FM241800 13009KT P6SM SCT030 BKN040
     FM242200 11014KT P6SM FEW040 SCT090 BKN250
     FM250200 13006KT P6SM SCT150 BKN250
     FM250500 14005KT P6SM SKC=

USA.gov is the U.S. government's official web portal to all federal, state and local government web resources and services.